Terminal Aerodrome Forecast
Issued by NWS

Home | Current Version | Previous Version | Text Only | Print | Product List | Glossary On
Versions: 1 2 3 4 5 6 7 8 9 10 11 12 13 14 15 16 17 18 19
000
FTAK31 PAFA 222320
TAFAQT
TAF
PAQT 222320Z 2300/2324 20004KT 1 1/2SM -SN BR OVC003
     FM230300 22006KT 6SM -SN BR OVC007
     FM231900 22008KT P6SM -SN OVC015
     FM232200 22008KT P6SM SCT250=

USA.gov is the U.S. government's official web portal to all federal, state and local government web resources and services.